Mytilene, Greece

7:34 PM EET on February 24, 2017 (GMT +0200)
Odysseas Elytis | | Change Station

Elev 16 ft 39.07 °N, 26.60 °E | Updated 14 minutes ago

Scattered Clouds
Scattered Clouds
59 °F
Feels Like 59 °F
N
12
Wind Variable Wind from South

Today
High -- | Low -- °F
--% Chance of Precip.
Yesterday
High -- | Low -- °F
Precip. -- in
Pressure 30.09 in
Visibility 6.2 miles
Clouds Scattered Clouds 2500 ft
Dew Point 48 °F
Humidity 67%
Rainfall 0.00 in
Snow Depth Not available.
6:53 AM 6:00 PM
Waning Crescent, 4% visible
METAR LGMT 241720Z 17010KT 130V240 9999 SCT025 15/09 Q1019
Pressure 30.09 in
Visibility 6.2 miles
Clouds Scattered Clouds 2500 ft
Dew Point 48 °F
Humidity 67%
Rainfall 0.00 in
Snow Depth Not available.
6:53 AM 6:00 PM
Waning Crescent, 4% visible
METAR LGMT 241720Z 17010KT 130V240 9999 SCT025 15/09 Q1019

Get Your Daily Forecast Email!

Thanks for signing up!

Be on the lookout for a verification email in your inbox.

You'll start receiving the daily forecast at 8 AM.

×

10-Day Weather Forecast

×

Almanac

Astronomy

Feb. 24, 2017 Rise Set
Actual Time
Civil Twilight
Nautical Twilight
Astronomical Twilight
Moon
Length of Visible Light
Length of Day
Tomorrow will be .
, % of the Moon is Illuminated

Today's Extremes

Country Highs Country Lows

Community

WunderPhotos

Upload Photos

1,962,540 photos uploaded!

WunderBlog® & News

Nearby

Air Quality

  Air Quality AQ Index Pollutant
Not available.

Snow Depth

Station Depth Elevation

Earthquake Activity

City Distance Mag. Time & Date
Minimum magnitude displayed is 2.5.

Coastal Water Temperatures

Place Temperature

Stations

Nearby Weather Stations

Station Location Temp. Windchill Dew Point Humidity Wind Precip. Elev Updated Type